sensor_id;sensor_type;location;lat;lon;timestamp;pressure;altitude;pressure_sealevel;temperature;humidity
24065;BME280;12258;50.940;5.330;2022-09-09T00:01:16;100441.16;;;18.72;100.00
24065;BME280;12258;50.940;5.330;2022-09-09T00:06:28;100452.41;;;18.76;100.00
24065;BME280;12258;50.940;5.330;2022-09-09T00:09:01;100439.84;;;19.09;100.00
24065;BME280;12258;50.940;5.330;2022-09-09T00:11:43;100436.28;;;19.17;100.00
24065;BME280;12258;50.940;5.330;2022-09-09T00:14:20;100441.09;;;18.55;100.00
24065;BME280;12258;50.940;5.330;2022-09-09T00:17:01;100431.50;;;19.48;100.00
24065;BME280;12258;50.940;5.330;2022-09-09T00:19:41;100439.88;;;19.18;100.00
24065;BME280;12258;50.940;5.330;2022-09-09T00:22:22;100431.03;;;19.55;100.00
24065;BME280;12258;50.940;5.330;2022-09-09T00:24:52;100426.25;;;19.38;100.00
24065;BME280;12258;50.940;5.330;2022-09-09T00:30:12;100425.13;;;18.92;100.00
24065;BME280;12258;50.940;5.330;2022-09-09T00:32:38;100425.84;;;19.14;100.00
24065;BME280;12258;50.940;5.330;2022-09-09T00:35:24;100419.75;;;19.51;100.00
24065;BME280;12258;50.940;5.330;2022-09-09T00:37:53;100414.22;;;19.51;100.00
24065;BME280;12258;50.940;5.330;2022-09-09T00:40:35;100413.91;;;19.44;100.00
24065;BME280;12258;50.940;5.330;2022-09-09T00:49:00;100404.56;;;19.32;100.00
24065;BME280;12258;50.940;5.330;2022-09-09T00:57:03;100413.00;;;19.27;100.00
24065;BME280;12258;50.940;5.330;2022-09-09T00:59:39;100408.44;;;19.22;100.00
24065;BME280;12258;50.940;5.330;2022-09-09T01:02:22;100406.66;;;19.18;100.00
24065;BME280;12258;50.940;5.330;2022-09-09T01:04:50;100407.19;;;18.89;100.00
24065;BME280;12258;50.940;5.330;2022-09-09T01:07:17;100414.25;;;19.04;100.00
24065;BME280;12258;50.940;5.330;2022-09-09T01:10:11;100405.34;;;19.24;100.00
24065;BME280;12258;50.940;5.330;2022-09-09T01:12:42;100402.56;;;19.07;100.00
24065;BME280;12258;50.940;5.330;2022-09-09T01:15:11;100403.06;;;19.17;100.00
24065;BME280;12258;50.940;5.330;2022-09-09T01:17:50;100399.44;;;18.60;100.00
24065;BME280;12258;50.940;5.330;2022-09-09T01:20:23;100401.19;;;18.96;100.00
24065;BME280;12258;50.940;5.330;2022-09-09T01:23:22;100396.47;;;18.96;100.00
24065;BME280;12258;50.940;5.330;2022-09-09T01:28:49;100394.69;;;18.52;100.00
24065;BME280;12258;50.940;5.330;2022-09-09T01:31:21;100403.75;;;18.22;100.00
24065;BME280;12258;50.940;5.330;2022-09-09T01:33:47;100396.63;;;18.52;100.00
24065;BME280;12258;50.940;5.330;2022-09-09T01:36:21;100399.94;;;18.62;100.00
24065;BME280;12258;50.940;5.330;2022-09-09T01:38:49;100399.78;;;18.37;100.00
24065;BME280;12258;50.940;5.330;2022-09-09T01:41:15;100400.13;;;18.13;100.00
24065;BME280;12258;50.940;5.330;2022-09-09T01:43:41;100399.25;;;17.82;100.00
24065;BME280;12258;50.940;5.330;2022-09-09T01:46:07;100395.25;;;17.88;100.00
24065;BME280;12258;50.940;5.330;2022-09-09T01:48:33;100391.41;;;18.28;100.00
24065;BME280;12258;50.940;5.330;2022-09-09T01:50:59;100388.50;;;18.03;100.00
24065;BME280;12258;50.940;5.330;2022-09-09T01:53:24;100396.22;;;18.14;100.00
24065;BME280;12258;50.940;5.330;2022-09-09T02:04:39;100384.19;;;18.71;100.00
24065;BME280;12258;50.940;5.330;2022-09-09T02:07:18;100378.19;;;18.39;100.00
24065;BME280;12258;50.940;5.330;2022-09-09T02:09:49;100379.34;;;18.86;100.00
24065;BME280;12258;50.940;5.330;2022-09-09T02:12:19;100378.84;;;18.75;100.00
24065;BME280;12258;50.940;5.330;2022-09-09T02:14:56;100376.38;;;18.73;100.00
24065;BME280;12258;50.940;5.330;2022-09-09T02:17:33;100375.84;;;18.63;100.00
24065;BME280;12258;50.940;5.330;2022-09-09T02:20:10;100372.00;;;18.81;100.00
24065;BME280;12258;50.940;5.330;2022-09-09T02:22:39;100371.22;;;18.50;100.00
24065;BME280;12258;50.940;5.330;2022-09-09T02:25:09;100369.00;;;18.60;100.00
24065;BME280;12258;50.940;5.330;2022-09-09T02:27:36;100368.50;;;18.28;100.00
24065;BME280;12258;50.940;5.330;2022-09-09T02:30:04;100366.59;;;18.37;100.00
24065;BME280;12258;50.940;5.330;2022-09-09T02:32:32;100364.41;;;18.47;100.00
24065;BME280;12258;50.940;5.330;2022-09-09T02:35:08;100360.88;;;18.33;100.00
24065;BME280;12258;50.940;5.330;2022-09-09T02:37:37;100356.34;;;18.37;100.00
24065;BME280;12258;50.940;5.330;2022-09-09T02:40:06;100361.25;;;18.10;100.00
24065;BME280;12258;50.940;5.330;2022-09-09T02:42:32;100355.78;;;18.27;100.00
24065;BME280;12258;50.940;5.330;2022-09-09T02:45:03;100360.41;;;18.31;100.00
24065;BME280;12258;50.940;5.330;2022-09-09T02:47:37;100370.94;;;17.99;100.00
24065;BME280;12258;50.940;5.330;2022-09-09T02:50:15;100355.75;;;18.40;100.00
24065;BME280;12258;50.940;5.330;2022-09-09T02:53:07;100362.66;;;18.29;100.00
24065;BME280;12258;50.940;5.330;2022-09-09T02:58:10;100371.50;;;18.70;100.00
24065;BME280;12258;50.940;5.330;2022-09-09T03:00:39;100375.97;;;18.49;100.00
24065;BME280;12258;50.940;5.330;2022-09-09T03:03:07;100370.41;;;18.41;100.00
24065;BME280;12258;50.940;5.330;2022-09-09T03:05:34;100374.63;;;17.94;100.00
24065;BME280;12258;50.940;5.330;2022-09-09T03:07:59;100379.19;;;18.21;100.00
24065;BME280;12258;50.940;5.330;2022-09-09T03:10:25;100375.88;;;17.88;100.00
24065;BME280;12258;50.940;5.330;2022-09-09T03:12:50;100374.00;;;17.97;100.00
24065;BME280;12258;50.940;5.330;2022-09-09T03:15:16;100369.63;;;17.74;100.00
24065;BME280;12258;50.940;5.330;2022-09-09T03:17:42;100368.34;;;17.80;100.00
24065;BME280;12258;50.940;5.330;2022-09-09T03:20:08;100373.78;;;18.16;100.00
24065;BME280;12258;50.940;5.330;2022-09-09T03:22:35;100376.22;;;17.87;100.00
24065;BME280;12258;50.940;5.330;2022-09-09T03:25:00;100381.84;;;17.82;100.00
24065;BME280;12258;50.940;5.330;2022-09-09T03:27:28;100382.16;;;18.02;100.00
24065;BME280;12258;50.940;5.330;2022-09-09T03:29:53;100381.34;;;18.54;100.00
24065;BME280;12258;50.940;5.330;2022-09-09T03:32:20;100379.06;;;18.04;100.00
24065;BME280;12258;50.940;5.330;2022-09-09T03:34:47;100378.69;;;18.19;100.00
24065;BME280;12258;50.940;5.330;2022-09-09T03:37:15;100375.50;;;18.03;100.00
24065;BME280;12258;50.940;5.330;2022-09-09T03:39:41;100384.09;;;18.54;100.00
24065;BME280;12258;50.940;5.330;2022-09-09T03:42:06;100381.94;;;18.73;100.00
24065;BME280;12258;50.940;5.330;2022-09-09T03:44:31;100376.47;;;18.29;100.00
24065;BME280;12258;50.940;5.330;2022-09-09T03:46:57;100376.13;;;18.44;100.00
24065;BME280;12258;50.940;5.330;2022-09-09T03:49:25;100377.25;;;17.99;100.00
24065;BME280;12258;50.940;5.330;2022-09-09T03:51:51;100372.53;;;18.44;100.00
24065;BME280;12258;50.940;5.330;2022-09-09T03:54:16;100380.88;;;18.30;100.00
24065;BME280;12258;50.940;5.330;2022-09-09T03:56:41;100387.06;;;18.05;100.00
24065;BME280;12258;50.940;5.330;2022-09-09T03:59:07;100374.03;;;18.28;100.00
24065;BME280;12258;50.940;5.330;2022-09-09T04:01:34;100371.88;;;18.47;100.00
24065;BME280;12258;50.940;5.330;2022-09-09T04:04:00;100358.81;;;18.39;100.00
24065;BME280;12258;50.940;5.330;2022-09-09T04:06:27;100372.31;;;18.10;100.00
24065;BME280;12258;50.940;5.330;2022-09-09T04:08:53;100365.50;;;18.16;100.00
24065;BME280;12258;50.940;5.330;2022-09-09T04:11:20;100364.22;;;18.44;100.00
24065;BME280;12258;50.940;5.330;2022-09-09T04:13:46;100359.88;;;18.29;100.00
24065;BME280;12258;50.940;5.330;2022-09-09T04:16:12;100365.81;;;17.92;100.00
24065;BME280;12258;50.940;5.330;2022-09-09T04:18:38;100359.44;;;18.05;100.00
24065;BME280;12258;50.940;5.330;2022-09-09T04:21:05;100360.72;;;18.38;100.00
24065;BME280;12258;50.940;5.330;2022-09-09T04:23:31;100351.53;;;18.99;100.00
24065;BME280;12258;50.940;5.330;2022-09-09T04:25:59;100373.63;;;17.90;100.00
24065;BME280;12258;50.940;5.330;2022-09-09T04:28:27;100358.75;;;18.30;100.00
24065;BME280;12258;50.940;5.330;2022-09-09T04:30:53;100356.50;;;18.10;100.00
24065;BME280;12258;50.940;5.330;2022-09-09T04:33:19;100361.19;;;17.57;100.00
24065;BME280;12258;50.940;5.330;2022-09-09T04:35:47;100361.75;;;17.90;100.00
24065;BME280;12258;50.940;5.330;2022-09-09T04:38:13;100360.81;;;17.94;100.00
24065;BME280;12258;50.940;5.330;2022-09-09T04:40:38;100364.66;;;17.85;100.00
24065;BME280;12258;50.940;5.330;2022-09-09T04:43:08;100355.28;;;17.72;100.00
24065;BME280;12258;50.940;5.330;2022-09-09T04:45:35;100349.53;;;17.82;100.00
24065;BME280;12258;50.940;5.330;2022-09-09T04:48:00;100355.16;;;17.55;100.00
24065;BME280;12258;50.940;5.330;2022-09-09T04:50:27;100354.34;;;17.77;100.00
24065;BME280;12258;50.940;5.330;2022-09-09T04:52:53;100366.00;;;17.96;100.00
24065;BME280;12258;50.940;5.330;2022-09-09T04:55:19;100367.53;;;17.80;100.00
24065;BME280;12258;50.940;5.330;2022-09-09T04:57:45;100353.53;;;17.98;100.00
24065;BME280;12258;50.940;5.330;2022-09-09T05:00:11;100361.81;;;17.98;100.00
24065;BME280;12258;50.940;5.330;2022-09-09T05:02:37;100362.13;;;17.53;100.00
24065;BME280;12258;50.940;5.330;2022-09-09T05:05:04;100362.31;;;17.78;100.00
24065;BME280;12258;50.940;5.330;2022-09-09T05:07:29;100363.50;;;18.08;100.00
24065;BME280;12258;50.940;5.330;2022-09-09T05:09:56;100365.47;;;17.85;100.00
24065;BME280;12258;50.940;5.330;2022-09-09T05:12:22;100367.91;;;17.87;100.00
24065;BME280;12258;50.940;5.330;2022-09-09T05:14:49;100369.66;;;17.61;100.00
24065;BME280;12258;50.940;5.330;2022-09-09T05:17:15;100362.59;;;17.90;100.00
24065;BME280;12258;50.940;5.330;2022-09-09T05:19:41;100367.47;;;17.93;100.00
24065;BME280;12258;50.940;5.330;2022-09-09T05:22:07;100367.03;;;17.78;100.00
24065;BME280;12258;50.940;5.330;2022-09-09T05:24:32;100356.94;;;17.95;100.00
24065;BME280;12258;50.940;5.330;2022-09-09T05:26:58;100365.22;;;17.37;100.00
24065;BME280;12258;50.940;5.330;2022-09-09T05:29:25;100364.75;;;17.80;100.00
24065;BME280;12258;50.940;5.330;2022-09-09T05:31:51;100362.06;;;17.66;100.00
24065;BME280;12258;50.940;5.330;2022-09-09T05:34:17;100365.56;;;17.58;100.00
24065;BME280;12258;50.940;5.330;2022-09-09T05:36:42;100369.31;;;17.76;100.00
24065;BME280;12258;50.940;5.330;2022-09-09T05:39:08;100368.69;;;17.43;100.00
24065;BME280;12258;50.940;5.330;2022-09-09T05:41:33;100371.22;;;17.97;100.00
24065;BME280;12258;50.940;5.330;2022-09-09T05:43:59;100379.03;;;17.95;100.00
24065;BME280;12258;50.940;5.330;2022-09-09T05:46:26;100377.50;;;18.11;100.00
24065;BME280;12258;50.940;5.330;2022-09-09T05:48:52;100378.59;;;18.32;100.00
24065;BME280;12258;50.940;5.330;2022-09-09T05:51:28;100371.66;;;18.13;100.00
24065;BME280;12258;50.940;5.330;2022-09-09T05:53:58;100370.56;;;18.22;100.00
24065;BME280;12258;50.940;5.330;2022-09-09T05:56:28;100368.66;;;18.01;100.00
24065;BME280;12258;50.940;5.330;2022-09-09T05:58:55;100375.75;;;17.93;100.00
24065;BME280;12258;50.940;5.330;2022-09-09T06:01:26;100372.50;;;17.91;100.00
24065;BME280;12258;50.940;5.330;2022-09-09T06:03:53;100367.31;;;18.20;100.00
24065;BME280;12258;50.940;5.330;2022-09-09T06:06:21;100370.44;;;18.27;100.00
24065;BME280;12258;50.940;5.330;2022-09-09T06:08:48;100365.44;;;18.07;100.00
24065;BME280;12258;50.940;5.330;2022-09-09T06:11:22;100358.03;;;18.16;100.00
24065;BME280;12258;50.940;5.330;2022-09-09T06:13:48;100361.63;;;18.47;100.00
24065;BME280;12258;50.940;5.330;2022-09-09T06:16:18;100364.41;;;18.25;100.00
24065;BME280;12258;50.940;5.330;2022-09-09T06:18:44;100362.66;;;18.29;100.00
24065;BME280;12258;50.940;5.330;2022-09-09T06:21:19;100361.97;;;18.24;100.00
24065;BME280;12258;50.940;5.330;2022-09-09T06:23:46;100360.53;;;18.26;100.00
24065;BME280;12258;50.940;5.330;2022-09-09T06:26:21;100358.19;;;18.42;100.00
24065;BME280;12258;50.940;5.330;2022-09-09T06:28:49;100364.59;;;18.59;100.00
24065;BME280;12258;50.940;5.330;2022-09-09T06:31:17;100360.06;;;18.63;100.00
24065;BME280;12258;50.940;5.330;2022-09-09T06:33:46;100347.69;;;18.61;100.00
24065;BME280;12258;50.940;5.330;2022-09-09T06:36:29;100351.56;;;19.08;100.00
24065;BME280;12258;50.940;5.330;2022-09-09T06:38:56;100359.97;;;18.86;100.00
24065;BME280;12258;50.940;5.330;2022-09-09T06:41:23;100354.44;;;18.86;100.00
24065;BME280;12258;50.940;5.330;2022-09-09T06:43:49;100346.84;;;19.00;100.00
24065;BME280;12258;50.940;5.330;2022-09-09T06:46:17;100351.34;;;18.79;100.00
24065;BME280;12258;50.940;5.330;2022-09-09T06:48:44;100352.84;;;18.93;100.00
24065;BME280;12258;50.940;5.330;2022-09-09T06:53:38;100361.09;;;19.41;100.00
24065;BME280;12258;50.940;5.330;2022-09-09T06:58:35;100362.91;;;18.81;100.00
24065;BME280;12258;50.940;5.330;2022-09-09T07:01:05;100362.50;;;19.13;100.00
24065;BME280;12258;50.940;5.330;2022-09-09T07:03:31;100366.69;;;18.93;100.00
24065;BME280;12258;50.940;5.330;2022-09-09T07:05:58;100364.53;;;19.38;100.00
24065;BME280;12258;50.940;5.330;2022-09-09T07:08:24;100366.22;;;19.00;100.00
24065;BME280;12258;50.940;5.330;2022-09-09T07:10:50;100355.81;;;19.14;100.00
24065;BME280;12258;50.940;5.330;2022-09-09T07:13:17;100363.69;;;19.54;100.00
24065;BME280;12258;50.940;5.330;2022-09-09T07:15:49;100362.34;;;19.26;100.00
24065;BME280;12258;50.940;5.330;2022-09-09T07:18:14;100357.25;;;19.03;100.00
24065;BME280;12258;50.940;5.330;2022-09-09T07:20:40;100355.63;;;19.10;100.00
24065;BME280;12258;50.940;5.330;2022-09-09T07:23:05;100357.56;;;18.93;100.00
24065;BME280;12258;50.940;5.330;2022-09-09T07:25:31;100361.19;;;19.19;100.00
24065;BME280;12258;50.940;5.330;2022-09-09T07:27:56;100357.34;;;19.71;100.00
24065;BME280;12258;50.940;5.330;2022-09-09T07:30:22;100361.88;;;19.84;100.00
24065;BME280;12258;50.940;5.330;2022-09-09T07:32:47;100356.00;;;19.26;100.00
24065;BME280;12258;50.940;5.330;2022-09-09T07:35:13;100351.28;;;19.26;100.00
24065;BME280;12258;50.940;5.330;2022-09-09T07:37:39;100351.13;;;19.74;100.00
24065;BME280;12258;50.940;5.330;2022-09-09T07:40:05;100349.09;;;20.34;100.00
24065;BME280;12258;50.940;5.330;2022-09-09T07:42:31;100343.94;;;20.16;100.00
24065;BME280;12258;50.940;5.330;2022-09-09T07:44:56;100354.34;;;20.10;100.00
24065;BME280;12258;50.940;5.330;2022-09-09T07:47:21;100356.03;;;19.77;100.00
24065;BME280;12258;50.940;5.330;2022-09-09T07:49:49;100353.75;;;19.62;100.00
24065;BME280;12258;50.940;5.330;2022-09-09T07:52:15;100350.63;;;19.89;100.00
24065;BME280;12258;50.940;5.330;2022-09-09T07:54:41;100350.84;;;19.67;100.00
24065;BME280;12258;50.940;5.330;2022-09-09T07:57:07;100360.88;;;19.97;100.00
24065;BME280;12258;50.940;5.330;2022-09-09T07:59:33;100361.09;;;19.66;100.00
24065;BME280;12258;50.940;5.330;2022-09-09T08:01:58;100362.72;;;19.76;100.00
24065;BME280;12258;50.940;5.330;2022-09-09T08:04:25;100364.28;;;19.17;100.00
24065;BME280;12258;50.940;5.330;2022-09-09T08:06:56;100364.81;;;19.36;100.00
24065;BME280;12258;50.940;5.330;2022-09-09T08:09:22;100363.84;;;19.58;100.00
24065;BME280;12258;50.940;5.330;2022-09-09T08:11:54;100357.00;;;19.72;100.00
24065;BME280;12258;50.940;5.330;2022-09-09T08:14:19;100361.09;;;19.83;100.00
24065;BME280;12258;50.940;5.330;2022-09-09T08:16:47;100366.94;;;19.48;100.00
24065;BME280;12258;50.940;5.330;2022-09-09T08:19:13;100369.22;;;19.97;100.00
24065;BME280;12258;50.940;5.330;2022-09-09T08:21:41;100363.38;;;19.47;100.00
24065;BME280;12258;50.940;5.330;2022-09-09T08:24:08;100354.75;;;19.49;100.00
24065;BME280;12258;50.940;5.330;2022-09-09T08:26:37;100377.38;;;19.59;100.00
24065;BME280;12258;50.940;5.330;2022-09-09T08:29:05;100370.94;;;19.08;100.00
24065;BME280;12258;50.940;5.330;2022-09-09T08:31:37;100371.03;;;19.50;100.00
24065;BME280;12258;50.940;5.330;2022-09-09T08:34:05;100371.13;;;19.11;100.00
24065;BME280;12258;50.940;5.330;2022-09-09T08:36:34;100372.00;;;19.29;100.00
24065;BME280;12258;50.940;5.330;2022-09-09T08:39:00;100369.56;;;19.61;100.00
24065;BME280;12258;50.940;5.330;2022-09-09T08:47:14;100376.81;;;19.23;100.00
24065;BME280;12258;50.940;5.330;2022-09-09T08:54:51;100394.06;;;19.03;100.00
24065;BME280;12258;50.940;5.330;2022-09-09T08:57:26;100396.16;;;18.98;100.00
24065;BME280;12258;50.940;5.330;2022-09-09T08:59:54;100394.38;;;18.93;100.00
24065;BME280;12258;50.940;5.330;2022-09-09T09:02:27;100394.31;;;18.85;100.00
24065;BME280;12258;50.940;5.330;2022-09-09T09:05:20;100398.38;;;19.26;100.00
24065;BME280;12258;50.940;5.330;2022-09-09T09:10:49;100392.22;;;19.55;100.00
24065;BME280;12258;50.940;5.330;2022-09-09T09:13:22;100396.13;;;19.37;100.00
24065;BME280;12258;50.940;5.330;2022-09-09T09:16:02;100403.72;;;19.23;100.00
24065;BME280;12258;50.940;5.330;2022-09-09T09:18:31;100400.53;;;19.38;100.00
24065;BME280;12258;50.940;5.330;2022-09-09T09:21:12;100408.19;;;19.41;100.00
24065;BME280;12258;50.940;5.330;2022-09-09T09:24:00;100398.72;;;19.42;100.00
24065;BME280;12258;50.940;5.330;2022-09-09T09:26:33;100411.88;;;19.19;100.00
24065;BME280;12258;50.940;5.330;2022-09-09T09:29:08;100405.28;;;19.46;100.00
24065;BME280;12258;50.940;5.330;2022-09-09T09:31:35;100409.16;;;19.45;100.00
24065;BME280;12258;50.940;5.330;2022-09-09T09:34:00;100417.31;;;19.33;100.00
24065;BME280;12258;50.940;5.330;2022-09-09T09:36:40;100422.72;;;19.55;100.00
24065;BME280;12258;50.940;5.330;2022-09-09T09:39:06;100420.63;;;19.69;100.00
24065;BME280;12258;50.940;5.330;2022-09-09T09:41:34;100413.06;;;20.12;100.00
24065;BME280;12258;50.940;5.330;2022-09-09T09:44:02;100413.09;;;20.29;100.00
24065;BME280;12258;50.940;5.330;2022-09-09T09:46:28;100407.72;;;19.73;100.00
24065;BME280;12258;50.940;5.330;2022-09-09T09:49:02;100407.66;;;20.41;100.00
24065;BME280;12258;50.940;5.330;2022-09-09T09:51:30;100404.91;;;20.07;100.00
24065;BME280;12258;50.940;5.330;2022-09-09T09:54:27;100409.81;;;20.10;100.00
24065;BME280;12258;50.940;5.330;2022-09-09T09:56:54;100410.00;;;20.22;100.00
24065;BME280;12258;50.940;5.330;2022-09-09T09:59:38;100401.03;;;19.74;100.00
24065;BME280;12258;50.940;5.330;2022-09-09T10:02:15;100408.19;;;19.58;100.00
24065;BME280;12258;50.940;5.330;2022-09-09T10:04:41;100404.78;;;19.44;100.00
24065;BME280;12258;50.940;5.330;2022-09-09T10:07:21;100409.53;;;19.60;100.00
24065;BME280;12258;50.940;5.330;2022-09-09T10:09:53;100402.22;;;19.08;100.00
24065;BME280;12258;50.940;5.330;2022-09-09T10:12:47;100401.84;;;19.49;100.00
24065;BME280;12258;50.940;5.330;2022-09-09T10:32:37;100429.88;;;19.00;100.00
24065;BME280;12258;50.940;5.330;2022-09-09T10:35:24;100429.00;;;18.51;100.00
24065;BME280;12258;50.940;5.330;2022-09-09T10:40:34;100443.97;;;18.81;100.00
24065;BME280;12258;50.940;5.330;2022-09-09T10:43:31;100445.72;;;18.46;100.00
24065;BME280;12258;50.940;5.330;2022-09-09T10:56:44;100442.25;;;19.50;100.00
24065;BME280;12258;50.940;5.330;2022-09-09T10:59:17;100439.00;;;19.56;100.00
24065;BME280;12258;50.940;5.330;2022-09-09T11:01:52;100437.47;;;19.25;100.00
24065;BME280;12258;50.940;5.330;2022-09-09T11:04:27;100437.72;;;19.54;100.00
24065;BME280;12258;50.940;5.330;2022-09-09T11:06:58;100435.47;;;19.17;100.00
24065;BME280;12258;50.940;5.330;2022-09-09T11:09:32;100445.16;;;19.36;100.00
24065;BME280;12258;50.940;5.330;2022-09-09T11:12:01;100436.00;;;19.27;100.00
24065;BME280;12258;50.940;5.330;2022-09-09T11:14:49;100440.59;;;19.32;100.00
24065;BME280;12258;50.940;5.330;2022-09-09T11:17:24;100436.75;;;19.11;100.00
24065;BME280;12258;50.940;5.330;2022-09-09T11:19:51;100444.59;;;19.82;100.00
24065;BME280;12258;50.940;5.330;2022-09-09T11:22:35;100437.72;;;19.54;100.00
24065;BME280;12258;50.940;5.330;2022-09-09T11:27:50;100428.25;;;20.06;100.00
24065;BME280;12258;50.940;5.330;2022-09-09T11:30:36;100436.13;;;20.21;100.00
24065;BME280;12258;50.940;5.330;2022-09-09T11:42:22;100427.72;;;20.55;100.00
24065;BME280;12258;50.940;5.330;2022-09-09T11:44:48;100423.34;;;20.12;100.00
24065;BME280;12258;50.940;5.330;2022-09-09T11:47:22;100430.34;;;20.35;100.00
24065;BME280;12258;50.940;5.330;2022-09-09T11:49:49;100425.81;;;20.04;100.00
24065;BME280;12258;50.940;5.330;2022-09-09T11:54:50;100424.84;;;20.18;100.00
24065;BME280;12258;50.940;5.330;2022-09-09T11:57:26;100418.13;;;20.10;100.00
24065;BME280;12258;50.940;5.330;2022-09-09T11:59:55;100419.59;;;20.08;100.00
24065;BME280;12258;50.940;5.330;2022-09-09T12:02:26;100432.69;;;20.24;100.00
24065;BME280;12258;50.940;5.330;2022-09-09T12:07:31;100424.00;;;19.66;100.00
24065;BME280;12258;50.940;5.330;2022-09-09T12:12:31;100435.44;;;19.98;100.00
24065;BME280;12258;50.940;5.330;2022-09-09T12:15:17;100448.34;;;20.29;100.00
24065;BME280;12258;50.940;5.330;2022-09-09T12:17:48;100446.50;;;19.98;100.00
24065;BME280;12258;50.940;5.330;2022-09-09T12:28:20;100437.03;;;19.40;100.00
24065;BME280;12258;50.940;5.330;2022-09-09T12:33:51;100428.09;;;20.02;100.00
24065;BME280;12258;50.940;5.330;2022-09-09T12:36:27;100432.97;;;20.40;100.00
24065;BME280;12258;50.940;5.330;2022-09-09T12:38:55;100426.63;;;20.31;100.00
24065;BME280;12258;50.940;5.330;2022-09-09T12:41:27;100425.34;;;20.20;100.00
24065;BME280;12258;50.940;5.330;2022-09-09T12:44:04;100433.31;;;21.51;100.00
24065;BME280;12258;50.940;5.330;2022-09-09T12:46:41;100437.56;;;21.78;100.00
24065;BME280;12258;50.940;5.330;2022-09-09T12:51:54;100428.56;;;21.72;100.00
24065;BME280;12258;50.940;5.330;2022-09-09T12:54:21;100427.50;;;21.65;100.00
24065;BME280;12258;50.940;5.330;2022-09-09T12:56:47;100421.56;;;22.28;100.00
24065;BME280;12258;50.940;5.330;2022-09-09T12:59:38;100424.47;;;21.99;100.00
24065;BME280;12258;50.940;5.330;2022-09-09T13:02:26;100417.78;;;22.32;100.00
24065;BME280;12258;50.940;5.330;2022-09-09T13:04:52;100407.13;;;21.31;100.00
24065;BME280;12258;50.940;5.330;2022-09-09T13:07:19;100408.63;;;22.11;100.00
24065;BME280;12258;50.940;5.330;2022-09-09T13:09:49;100413.38;;;23.00;100.00
24065;BME280;12258;50.940;5.330;2022-09-09T13:12:23;100422.66;;;22.92;100.00
24065;BME280;12258;50.940;5.330;2022-09-09T13:14:53;100407.41;;;22.21;100.00
24065;BME280;12258;50.940;5.330;2022-09-09T13:17:24;100412.06;;;22.29;100.00
24065;BME280;12258;50.940;5.330;2022-09-09T13:19:51;100406.38;;;22.58;100.00
24065;BME280;12258;50.940;5.330;2022-09-09T13:22:36;100406.50;;;22.86;100.00
24065;BME280;12258;50.940;5.330;2022-09-09T13:27:36;100398.78;;;21.81;100.00
24065;BME280;12258;50.940;5.330;2022-09-09T13:30:22;100396.69;;;22.11;100.00
24065;BME280;12258;50.940;5.330;2022-09-09T13:33:05;100392.28;;;22.10;100.00
24065;BME280;12258;50.940;5.330;2022-09-09T13:35:32;100384.78;;;21.49;100.00
24065;BME280;12258;50.940;5.330;2022-09-09T13:38:05;100391.91;;;21.79;100.00
24065;BME280;12258;50.940;5.330;2022-09-09T13:40:32;100388.91;;;22.37;100.00
24065;BME280;12258;50.940;5.330;2022-09-09T13:42:59;100391.56;;;21.60;100.00
24065;BME280;12258;50.940;5.330;2022-09-09T13:45:26;100386.69;;;21.98;100.00
24065;BME280;12258;50.940;5.330;2022-09-09T13:47:53;100388.22;;;22.07;100.00
24065;BME280;12258;50.940;5.330;2022-09-09T13:50:23;100380.00;;;22.11;100.00
24065;BME280;12258;50.940;5.330;2022-09-09T13:52:52;100373.88;;;22.17;100.00
24065;BME280;12258;50.940;5.330;2022-09-09T13:55:19;100391.63;;;22.13;100.00
24065;BME280;12258;50.940;5.330;2022-09-09T13:58:03;100391.69;;;22.37;100.00
24065;BME280;12258;50.940;5.330;2022-09-09T14:00:32;100396.44;;;22.81;100.00
24065;BME280;12258;50.940;5.330;2022-09-09T14:02:58;100392.47;;;22.70;100.00
24065;BME280;12258;50.940;5.330;2022-09-09T14:05:25;100393.84;;;22.64;100.00
24065;BME280;12258;50.940;5.330;2022-09-09T14:07:51;100398.34;;;21.91;100.00
24065;BME280;12258;50.940;5.330;2022-09-09T14:10:17;100389.69;;;22.05;100.00
24065;BME280;12258;50.940;5.330;2022-09-09T14:12:43;100387.31;;;22.15;100.00
24065;BME280;12258;50.940;5.330;2022-09-09T14:15:10;100391.69;;;22.49;100.00
24065;BME280;12258;50.940;5.330;2022-09-09T14:17:37;100393.00;;;22.19;100.00
24065;BME280;12258;50.940;5.330;2022-09-09T14:20:05;100381.78;;;22.72;100.00
24065;BME280;12258;50.940;5.330;2022-09-09T14:22:35;100381.94;;;22.43;100.00
24065;BME280;12258;50.940;5.330;2022-09-09T14:25:01;100386.88;;;22.25;100.00
24065;BME280;12258;50.940;5.330;2022-09-09T14:27:27;100385.63;;;22.80;100.00
24065;BME280;12258;50.940;5.330;2022-09-09T14:29:53;100389.47;;;22.87;100.00
24065;BME280;12258;50.940;5.330;2022-09-09T14:32:19;100386.13;;;22.49;100.00
24065;BME280;12258;50.940;5.330;2022-09-09T14:34:44;100396.41;;;22.57;100.00
24065;BME280;12258;50.940;5.330;2022-09-09T14:37:10;100387.16;;;23.01;100.00
24065;BME280;12258;50.940;5.330;2022-09-09T14:39:35;100391.53;;;22.66;100.00
24065;BME280;12258;50.940;5.330;2022-09-09T14:42:01;100398.97;;;23.10;100.00
24065;BME280;12258;50.940;5.330;2022-09-09T14:44:27;100390.97;;;23.33;100.00
24065;BME280;12258;50.940;5.330;2022-09-09T14:46:53;100378.16;;;23.56;100.00
24065;BME280;12258;50.940;5.330;2022-09-09T14:49:19;100381.00;;;22.96;100.00
24065;BME280;12258;50.940;5.330;2022-09-09T14:51:45;100387.94;;;23.26;100.00